Time;durP1;ratioP1;P1;durP2;ratioP2;P2;SDS_P1;SDS_P2;PMS_P1;PMS_P2;Temp;Humidity;BMP_temperature;BMP_pressure;BME280_temperature;BME280_humidity;BME280_pressure;Samples;Min_cycle;Max_cycle;Signal;HPM_P1;HPM_P2
2021/11/29 00:00:09;;;;;;;5.88;3.67;;;1.10;99.90;;;;;;5016041;23;20010;-78
2021/11/29 00:02:12;;;;;;;5.45;3.05;;;1.20;99.90;;;;;;5014819;23;20213;-78
2021/11/29 00:04:13;;;;;;;4.43;3.58;;;1.20;99.90;;;;;;5014780;23;20038;-78
2021/11/29 00:06:14;;;;;;;6.15;3.67;;;1.20;99.90;;;;;;5014562;23;20109;-79
2021/11/29 00:08:14;;;;;;;4.38;3.25;;;1.20;99.90;;;;;;5014627;23;20041;-80
2021/11/29 00:10:15;;;;;;;5.53;3.90;;;1.20;99.90;;;;;;5014037;23;20475;-81
2021/11/29 00:12:16;;;;;;;8.02;3.67;;;1.20;99.90;;;;;;5014549;23;20011;-79
2021/11/29 00:14:17;;;;;;;11.25;4.05;;;1.20;99.90;;;;;;5014741;23;20011;-79
2021/11/29 00:16:18;;;;;;;6.32;3.35;;;1.30;99.90;;;;;;5015003;23;20098;-80
2021/11/29 00:18:19;;;;;;;10.15;3.42;;;1.30;99.90;;;;;;5013048;23;20019;-79
2021/11/29 00:20:20;;;;;;;8.85;3.08;;;1.20;99.90;;;;;;5013626;23;20098;-78
2021/11/29 00:22:20;;;;;;;10.48;3.63;;;1.10;99.90;;;;;;5015762;23;20033;-78
2021/11/29 00:24:21;;;;;;;5.90;3.38;;;1.00;99.90;;;;;;5015225;23;20036;-79
2021/11/29 00:26:22;;;;;;;7.35;3.28;;;1.00;99.90;;;;;;5016373;23;20034;-79
2021/11/29 00:28:23;;;;;;;6.80;3.80;;;0.90;99.90;;;;;;5015054;23;20010;-79
2021/11/29 00:30:24;;;;;;;5.55;3.60;;;0.80;99.90;;;;;;5016269;23;20114;-78
2021/11/29 00:32:25;;;;;;;6.60;3.53;;;0.70;99.90;;;;;;5016869;23;20659;-79
2021/11/29 00:34:25;;;;;;;13.15;3.45;;;0.60;99.90;;;;;;5015799;23;20011;-78
2021/11/29 00:36:26;;;;;;;13.13;4.10;;;0.40;99.90;;;;;;5016530;23;20030;-79
2021/11/29 00:38:27;;;;;;;4.53;3.42;;;0.40;99.90;;;;;;5015264;23;20367;-79
2021/11/29 00:40:27;;;;;;;5.80;3.58;;;0.30;99.90;;;;;;5013534;23;20527;-79
2021/11/29 00:42:28;;;;;;;10.57;3.95;;;0.40;99.90;;;;;;5012414;23;20024;-77
2021/11/29 00:44:28;;;;;;;6.43;3.08;;;0.50;99.90;;;;;;5015549;23;20133;-79
2021/11/29 00:46:29;;;;;;;12.88;3.60;;;0.50;99.90;;;;;;5015207;23;20086;-79
2021/11/29 00:48:29;;;;;;;8.40;3.42;;;0.50;99.90;;;;;;5013704;23;20570;-79
2021/11/29 00:50:30;;;;;;;10.98;4.55;;;0.60;99.90;;;;;;5013526;23;20124;-78
2021/11/29 00:52:31;;;;;;;5.75;3.58;;;0.60;99.90;;;;;;5013770;23;20034;-80
2021/11/29 00:54:32;;;;;;;4.65;3.15;;;0.60;99.90;;;;;;5016008;23;20015;-79
2021/11/29 00:56:32;;;;;;;5.80;3.55;;;0.60;99.90;;;;;;5015824;23;20022;-79
2021/11/29 00:58:33;;;;;;;7.88;3.88;;;0.60;99.90;;;;;;5014130;23;20101;-79
2021/11/29 01:00:35;;;;;;;9.50;3.63;;;0.60;99.90;;;;;;5011964;23;20486;-79
2021/11/29 01:02:36;;;;;;;10.77;4.27;;;0.60;99.90;;;;;;5012768;23;20045;-79
2021/11/29 01:04:36;;;;;;;4.85;3.78;;;0.60;99.90;;;;;;5014296;23;20247;-79
2021/11/29 01:06:37;;;;;;;8.82;3.33;;;0.70;99.90;;;;;;5014774;23;20022;-80
2021/11/29 01:08:38;;;;;;;7.00;3.80;;;0.70;99.90;;;;;;5011983;23;20111;-79
2021/11/29 01:10:39;;;;;;;7.97;3.17;;;0.60;99.90;;;;;;5012109;23;20101;-79
2021/11/29 01:12:41;;;;;;;8.93;3.28;;;0.50;99.90;;;;;;5012001;23;20470;-79
2021/11/29 01:14:43;;;;;;;5.75;3.15;;;0.50;99.90;;;;;;5015909;23;20098;-79
2021/11/29 01:16:43;;;;;;;6.13;3.42;;;0.60;99.90;;;;;;5015634;23;20015;-77
2021/11/29 01:18:44;;;;;;;4.85;3.38;;;0.60;99.90;;;;;;5015973;23;20014;-77
2021/11/29 01:20:46;;;;;;;7.30;3.17;;;0.70;99.90;;;;;;5015177;23;20015;-77
2021/11/29 01:22:47;;;;;;;8.38;3.83;;;0.60;99.90;;;;;;5015846;23;20038;-78
2021/11/29 01:24:48;;;;;;;8.30;3.25;;;0.60;99.90;;;;;;5014737;23;20022;-78
2021/11/29 01:26:48;;;;;;;4.18;3.00;;;0.60;99.90;;;;;;5015701;23;20045;-78
2021/11/29 01:28:49;;;;;;;8.38;3.03;;;0.60;99.90;;;;;;5015705;23;20115;-77
2021/11/29 01:30:51;;;;;;;11.00;3.72;;;0.80;99.90;;;;;;5016160;23;20074;-76
2021/11/29 01:32:52;;;;;;;5.25;2.63;;;0.90;99.90;;;;;;5013719;23;20011;-78
2021/11/29 01:34:52;;;;;;;5.57;3.00;;;1.10;99.90;;;;;;5014247;23;20384;-77
2021/11/29 01:36:53;;;;;;;8.15;2.83;;;1.20;99.90;;;;;;5014940;23;20015;-77
2021/11/29 01:38:53;;;;;;;6.90;2.75;;;1.20;99.90;;;;;;5013916;23;20090;-77
2021/11/29 01:40:55;;;;;;;2.90;2.63;;;1.20;99.90;;;;;;5016011;23;20435;-78
2021/11/29 01:43:11;;;;;;;4.60;3.28;;;1.20;99.90;;;;;;5015426;23;20074;-78
2021/11/29 01:45:17;;;;;;;5.05;2.80;;;1.20;99.90;;;;;;5015306;23;20042;-78
2021/11/29 01:47:22;;;;;;;12.70;4.10;;;1.20;99.90;;;;;;5015614;23;20470;-76
2021/11/29 01:49:23;;;;;;;5.43;2.33;;;1.30;99.90;;;;;;5016132;23;20089;-79
2021/11/29 01:51:23;;;;;;;5.72;2.53;;;1.30;99.90;;;;;;5013451;23;20392;-78
2021/11/29 01:53:26;;;;;;;6.53;2.75;;;1.20;99.90;;;;;;5015280;23;20085;-78
2021/11/29 01:55:26;;;;;;;3.17;2.47;;;1.10;99.90;;;;;;5015443;23;20019;-78
2021/11/29 01:57:27;;;;;;;6.80;2.40;;;1.10;99.90;;;;;;5014149;23;20048;-79
2021/11/29 01:59:28;;;;;;;7.95;3.13;;;1.10;99.90;;;;;;5015115;23;20017;-76
2021/11/29 02:01:28;;;;;;;6.47;2.70;;;1.00;99.90;;;;;;5016283;23;20347;-77
2021/11/29 02:03:30;;;;;;;3.35;2.30;;;1.10;99.90;;;;;;5012769;23;20100;-76
2021/11/29 02:05:31;;;;;;;4.25;2.78;;;1.00;99.90;;;;;;5015377;23;20161;-77
2021/11/29 02:07:32;;;;;;;4.15;2.47;;;1.00;99.90;;;;;;5014925;23;20019;-77
2021/11/29 02:09:32;;;;;;;2.85;2.38;;;0.80;99.90;;;;;;5015507;23;20021;-77
2021/11/29 02:11:33;;;;;;;3.30;2.40;;;0.80;99.90;;;;;;5014812;23;20105;-76
2021/11/29 02:13:34;;;;;;;3.55;2.70;;;0.90;99.90;;;;;;5015709;23;20011;-76
2021/11/29 02:15:37;;;;;;;7.30;3.03;;;0.80;99.90;;;;;;5013882;23;20019;-76
2021/11/29 02:17:39;;;;;;;6.22;3.03;;;0.80;99.90;;;;;;5015375;23;20014;-78
2021/11/29 02:19:43;;;;;;;8.70;2.53;;;0.70;99.90;;;;;;5010140;23;20445;-78
2021/11/29 02:21:44;;;;;;;8.68;2.63;;;0.60;99.90;;;;;;5013048;23;20100;-75
2021/11/29 02:23:50;;;;;;;3.47;2.30;;;0.60;99.90;;;;;;5013514;23;20011;-78
2021/11/29 02:25:51;;;;;;;5.78;2.35;;;0.60;99.90;;;;;;5013840;23;20017;-77
2021/11/29 02:27:53;;;;;;;4.45;2.08;;;0.70;99.90;;;;;;5013943;23;20442;-78
2021/11/29 02:29:55;;;;;;;6.03;2.65;;;0.60;99.90;;;;;;5014992;23;20455;-78
2021/11/29 02:31:56;;;;;;;5.55;2.38;;;0.60;99.90;;;;;;5015422;23;20003;-80
2021/11/29 02:33:56;;;;;;;8.40;2.30;;;0.60;99.90;;;;;;5015110;23;20018;-80
2021/11/29 02:35:57;;;;;;;3.53;2.30;;;0.60;99.90;;;;;;5013801;23;20007;-77
2021/11/29 02:37:58;;;;;;;3.13;2.13;;;0.60;99.90;;;;;;5015374;23;20011;-79
2021/11/29 02:39:59;;;;;;;4.22;2.03;;;0.70;99.90;;;;;;5014119;23;20030;-78
2021/11/29 02:42:02;;;;;;;3.42;2.50;;;0.90;99.90;;;;;;5014759;23;20023;-78
2021/11/29 02:44:04;;;;;;;2.72;2.13;;;1.00;99.90;;;;;;5014844;23;20466;-78
2021/11/29 02:46:04;;;;;;;7.80;2.28;;;1.10;99.90;;;;;;5014191;23;20054;-78
2021/11/29 02:48:05;;;;;;;2.45;1.80;;;1.10;99.90;;;;;;5013593;23;20011;-78
2021/11/29 02:50:07;;;;;;;7.70;2.00;;;1.00;99.90;;;;;;5014920;23;20069;-78
2021/11/29 02:52:13;;;;;;;4.53;2.30;;;1.10;99.90;;;;;;5013697;23;20022;-78
2021/11/29 02:54:19;;;;;;;3.90;2.47;;;1.00;99.90;;;;;;5013151;23;20011;-77
2021/11/29 02:56:20;;;;;;;5.13;2.45;;;0.90;99.90;;;;;;5015334;23;20015;-78
2021/11/29 02:58:20;;;;;;;13.43;4.40;;;0.80;99.90;;;;;;5013264;23;20486;-79
2021/11/29 03:00:21;;;;;;;5.07;3.00;;;0.70;99.90;;;;;;5013741;23;20018;-78
2021/11/29 03:02:22;;;;;;;5.28;3.08;;;0.70;99.90;;;;;;5013607;23;20033;-78
2021/11/29 03:04:25;;;;;;;6.63;2.92;;;0.60;99.90;;;;;;5013539;23;20013;-78
2021/11/29 03:06:25;;;;;;;9.02;3.88;;;0.50;99.90;;;;;;5013438;23;20007;-78
2021/11/29 03:08:26;;;;;;;3.78;2.78;;;0.60;99.90;;;;;;5013473;23;20551;-78
2021/11/29 03:10:27;;;;;;;4.38;2.72;;;0.60;99.90;;;;;;5015169;23;20471;-78
2021/11/29 03:12:28;;;;;;;6.18;2.33;;;0.50;99.90;;;;;;5014845;23;20021;-77
2021/11/29 03:14:28;;;;;;;4.10;2.50;;;0.40;99.90;;;;;;5015449;23;20014;-78
2021/11/29 03:16:30;;;;;;;6.20;2.88;;;0.40;99.90;;;;;;5015217;23;20466;-78
2021/11/29 03:18:33;;;;;;;8.13;2.70;;;0.40;99.90;;;;;;5015012;23;20022;-79
2021/11/29 03:20:33;;;;;;;3.00;2.72;;;0.40;99.90;;;;;;5013661;23;20091;-79
2021/11/29 03:22:34;;;;;;;4.95;2.53;;;0.40;99.90;;;;;;5015305;23;20066;-79
2021/11/29 03:24:36;;;;;;;8.63;2.90;;;0.40;99.90;;;;;;5014949;23;20018;-79
2021/11/29 03:26:39;;;;;;;4.72;2.70;;;0.40;99.90;;;;;;5015158;23;20050;-79
2021/11/29 03:28:42;;;;;;;5.85;2.83;;;0.40;99.90;;;;;;5015270;23;20059;-79
2021/11/29 03:30:43;;;;;;;7.45;3.15;;;0.40;99.90;;;;;;5013862;23;20019;-78
2021/11/29 03:32:44;;;;;;;3.88;3.15;;;0.40;99.90;;;;;;5013150;23;20066;-78
2021/11/29 03:34:45;;;;;;;7.00;3.22;;;0.40;99.90;;;;;;5015449;23;20018;-78
2021/11/29 03:36:47;;;;;;;7.68;3.10;;;0.40;99.90;;;;;;5012989;23;20022;-78
2021/11/29 03:38:47;;;;;;;5.45;3.97;;;0.40;99.90;;;;;;5015596;23;20114;-79
2021/11/29 03:40:48;;;;;;;3.53;2.85;;;0.40;99.90;;;;;;5015271;23;20017;-78
2021/11/29 03:42:49;;;;;;;4.90;2.88;;;0.40;99.90;;;;;;5013474;23;20026;-78
2021/11/29 03:44:49;;;;;;;17.17;4.80;;;0.40;99.90;;;;;;5013305;23;20042;-79
2021/11/29 03:46:52;;;;;;;4.32;2.97;;;0.40;99.90;;;;;;5015013;23;20019;-80
2021/11/29 03:48:53;;;;;;;7.53;3.33;;;0.50;99.90;;;;;;5015084;23;20459;-77
2021/11/29 03:50:54;;;;;;;4.57;3.22;;;0.50;99.90;;;;;;5014676;23;20045;-79
2021/11/29 03:52:54;;;;;;;4.60;3.22;;;0.50;99.90;;;;;;5013026;23;20043;-78
2021/11/29 03:54:56;;;;;;;7.60;3.20;;;0.50;99.90;;;;;;5014638;23;20015;-79
2021/11/29 03:56:57;;;;;;;4.63;3.30;;;0.50;99.90;;;;;;5015401;23;20404;-78
2021/11/29 03:58:59;;;;;;;9.07;3.65;;;0.60;99.90;;;;;;5014999;23;20019;-78
2021/11/29 04:01:00;;;;;;;6.68;3.05;;;0.70;99.90;;;;;;5015269;23;20018;-80
2021/11/29 04:03:01;;;;;;;6.85;3.75;;;0.70;99.90;;;;;;5012764;23;20462;-79
2021/11/29 04:05:02;;;;;;;5.28;2.97;;;0.70;99.90;;;;;;5013970;23;20010;-77
2021/11/29 04:07:03;;;;;;;8.23;3.22;;;0.70;99.90;;;;;;5013137;23;20098;-79
2021/11/29 04:09:04;;;;;;;4.95;3.13;;;0.70;99.90;;;;;;5015703;23;20336;-79
2021/11/29 04:11:05;;;;;;;4.47;2.85;;;0.60;99.90;;;;;;5013131;23;20015;-78
2021/11/29 04:13:07;;;;;;;5.63;2.85;;;0.70;99.90;;;;;;5013699;23;20045;-79
2021/11/29 04:15:09;;;;;;;3.95;3.10;;;0.90;99.90;;;;;;5014873;23;20015;-79
2021/11/29 04:17:11;;;;;;;5.50;2.75;;;0.90;99.90;;;;;;5016560;23;20011;-79
2021/11/29 04:19:13;;;;;;;11.18;4.82;;;0.90;99.90;;;;;;5014714;23;20018;-78
2021/11/29 04:21:15;;;;;;;6.82;2.88;;;0.90;99.90;;;;;;5011968;23;20019;-80
2021/11/29 04:23:16;;;;;;;3.75;3.28;;;0.90;99.90;;;;;;5016993;23;20015;-80
2021/11/29 04:25:21;;;;;;;6.80;3.20;;;0.90;99.90;;;;;;5015140;23;20102;-79
2021/11/29 04:27:22;;;;;;;4.07;2.85;;;0.90;99.90;;;;;;5014875;23;20003;-80
2021/11/29 04:29:27;;;;;;;7.13;2.65;;;0.90;99.90;;;;;;5015965;23;20011;-78
2021/11/29 04:31:27;;;;;;;6.43;2.80;;;0.90;99.90;;;;;;5015694;23;20097;-79
2021/11/29 04:33:30;;;;;;;6.35;3.17;;;0.90;99.90;;;;;;5013876;23;20521;-78
2021/11/29 04:35:30;;;;;;;9.35;3.17;;;0.90;99.90;;;;;;5016142;23;20595;-79
2021/11/29 04:37:31;;;;;;;4.97;2.90;;;1.00;99.90;;;;;;5015962;23;20086;-80
2021/11/29 04:39:33;;;;;;;8.63;3.33;;;1.00;99.90;;;;;;5013735;23;20014;-77
2021/11/29 04:41:34;;;;;;;15.07;3.28;;;1.00;99.90;;;;;;5015360;23;20026;-78
2021/11/29 04:43:35;;;;;;;10.50;3.28;;;0.90;99.90;;;;;;5015972;23;20448;-80
2021/11/29 04:45:36;;;;;;;8.00;3.33;;;0.90;99.90;;;;;;5015351;23;20041;-78
2021/11/29 04:47:37;;;;;;;3.97;2.42;;;0.80;99.90;;;;;;5014148;23;20010;-79
2021/11/29 04:49:39;;;;;;;7.75;3.95;;;0.80;99.90;;;;;;5014028;23;20022;-78
2021/11/29 04:51:40;;;;;;;4.28;3.08;;;0.90;99.90;;;;;;5016080;23;20399;-78
2021/11/29 04:53:41;;;;;;;6.00;3.65;;;0.90;99.90;;;;;;5015336;23;20019;-78
2021/11/29 04:55:42;;;;;;;11.10;4.00;;;0.90;99.90;;;;;;5015946;23;20019;-78
2021/11/29 04:57:43;;;;;;;8.05;3.50;;;1.00;99.90;;;;;;5013308;23;20706;-77
2021/11/29 04:59:44;;;;;;;5.88;3.40;;;1.00;99.90;;;;;;5016431;23;20011;-79
2021/11/29 05:01:44;;;;;;;7.45;3.15;;;1.10;99.90;;;;;;5016317;23;20742;-78
2021/11/29 05:03:45;;;;;;;9.18;4.55;;;1.20;99.90;;;;;;5016871;23;20058;-79
2021/11/29 05:05:47;;;;;;;8.23;3.60;;;1.30;99.90;;;;;;5015282;23;20117;-78
2021/11/29 05:07:48;;;;;;;12.57;3.88;;;1.30;99.90;;;;;;5014490;23;20019;-78
2021/11/29 05:09:48;;;;;;;5.57;3.25;;;1.30;99.90;;;;;;5015973;23;20033;-79
2021/11/29 05:11:49;;;;;;;8.00;3.47;;;1.40;99.90;;;;;;5013932;23;20358;-79
2021/11/29 05:13:50;;;;;;;5.00;3.55;;;1.30;99.90;;;;;;5016437;23;20015;-78
2021/11/29 05:15:51;;;;;;;10.07;4.90;;;1.20;99.90;;;;;;5014651;23;20022;-77
2021/11/29 05:17:51;;;;;;;8.65;3.97;;;1.10;99.90;;;;;;5015920;23;20462;-79
2021/11/29 05:19:53;;;;;;;10.80;4.20;;;1.10;99.90;;;;;;5014400;23;20021;-78
2021/11/29 05:21:53;;;;;;;6.30;3.20;;;1.10;99.90;;;;;;5013865;23;20011;-77
2021/11/29 05:23:54;;;;;;;7.03;4.20;;;1.20;99.90;;;;;;5016228;23;20022;-79
2021/11/29 05:25:56;;;;;;;7.05;3.55;;;1.20;99.90;;;;;;5015915;23;20066;-79
2021/11/29 05:27:57;;;;;;;6.38;3.20;;;1.20;99.90;;;;;;5013603;23;20170;-77
2021/11/29 05:29:58;;;;;;;5.47;3.05;;;1.10;99.90;;;;;;5014243;23;20066;-78
2021/11/29 05:31:59;;;;;;;5.72;3.35;;;1.10;99.90;;;;;;5016227;23;20011;-79
2021/11/29 05:34:02;;;;;;;9.77;4.32;;;1.20;99.90;;;;;;5014647;23;20065;-79
2021/11/29 05:36:03;;;;;;;6.22;3.25;;;1.30;99.90;;;;;;5014943;23;20068;-79
2021/11/29 05:38:04;;;;;;;7.80;3.88;;;1.20;99.90;;;;;;5014046;23;20494;-80
2021/11/29 05:40:05;;;;;;;8.93;3.80;;;1.30;99.90;;;;;;5014719;23;20348;-80
2021/11/29 05:42:06;;;;;;;12.02;4.60;;;1.30;99.90;;;;;;5015833;23;20021;-79
2021/11/29 05:44:07;;;;;;;6.50;3.63;;;1.30;99.90;;;;;;5015218;23;20381;-80
2021/11/29 05:46:07;;;;;;;6.65;3.60;;;1.20;99.90;;;;;;5015789;23;20018;-78
2021/11/29 05:48:08;;;;;;;10.82;3.65;;;1.20;99.90;;;;;;5015157;23;20003;-79
2021/11/29 05:50:11;;;;;;;9.45;3.88;;;1.10;99.90;;;;;;5014167;23;20018;-79
2021/11/29 05:52:11;;;;;;;10.05;4.03;;;1.00;99.90;;;;;;5013756;23;20093;-79
2021/11/29 05:54:12;;;;;;;8.18;4.05;;;0.90;99.90;;;;;;5014641;23;20815;-79
2021/11/29 05:56:14;;;;;;;8.00;4.63;;;0.90;99.90;;;;;;5015632;23;20021;-79
2021/11/29 05:58:15;;;;;;;12.35;4.47;;;0.80;99.90;;;;;;5016025;23;20014;-79
2021/11/29 06:00:18;;;;;;;8.48;4.30;;;0.80;99.90;;;;;;5015942;23;20085;-78
2021/11/29 06:02:18;;;;;;;11.20;3.42;;;0.80;99.90;;;;;;5013974;23;20022;-78
2021/11/29 06:04:19;;;;;;;9.68;4.43;;;0.80;99.90;;;;;;5015763;23;20018;-78
2021/11/29 06:06:20;;;;;;;5.18;3.88;;;0.80;99.90;;;;;;5014237;23;20098;-79
2021/11/29 06:08:21;;;;;;;9.48;4.70;;;0.70;99.90;;;;;;5014984;23;20110;-78
2021/11/29 06:10:21;;;;;;;12.82;3.97;;;0.70;99.90;;;;;;5014730;23;20021;-78
2021/11/29 06:12:22;;;;;;;11.70;4.55;;;0.70;99.90;;;;;;5014916;23;20178;-79
2021/11/29 06:14:25;;;;;;;9.85;4.28;;;0.70;99.90;;;;;;5013341;23;20019;-79
2021/11/29 06:16:26;;;;;;;12.32;4.45;;;0.80;99.90;;;;;;5013312;23;20090;-79
2021/11/29 06:18:27;;;;;;;13.00;4.35;;;0.70;99.90;;;;;;5014892;23;20022;-78
2021/11/29 06:20:27;;;;;;;10.93;4.20;;;0.80;99.90;;;;;;5015359;23;20339;-79
2021/11/29 06:22:28;;;;;;;13.93;4.85;;;0.80;99.90;;;;;;5008435;23;20019;-78
2021/11/29 06:24:28;;;;;;;8.93;5.90;;;0.80;99.90;;;;;;5015429;23;20094;-78
2021/11/29 06:26:29;;;;;;;12.05;5.65;;;0.80;99.90;;;;;;5015895;23;20097;-79
2021/11/29 06:28:31;;;;;;;14.73;4.68;;;0.80;99.90;;;;;;5014147;23;20014;-79
2021/11/29 06:30:33;;;;;;;10.35;4.95;;;0.80;99.90;;;;;;5015575;23;20090;-79
2021/11/29 06:32:33;;;;;;;10.95;5.13;;;1.00;99.90;;;;;;5013695;23;20531;-79
2021/11/29 06:34:34;;;;;;;10.90;4.75;;;1.10;99.90;;;;;;5013157;23;20014;-79
2021/11/29 06:36:35;;;;;;;9.82;4.53;;;1.10;99.90;;;;;;5013298;23;20038;-79
2021/11/29 06:38:35;;;;;;;7.15;3.80;;;1.10;99.90;;;;;;5015413;23;20015;-78
2021/11/29 06:40:36;;;;;;;10.27;4.95;;;1.20;99.90;;;;;;5013714;23;20026;-79
2021/11/29 06:42:36;;;;;;;8.48;5.03;;;1.20;99.90;;;;;;5015300;23;20031;-79
2021/11/29 06:44:37;;;;;;;11.50;4.20;;;1.20;99.90;;;;;;5013834;23;20017;-79
2021/11/29 06:46:38;;;;;;;15.80;5.93;;;1.30;99.90;;;;;;5014573;23;20343;-78
2021/11/29 06:48:38;;;;;;;7.05;3.75;;;1.50;99.90;;;;;;5015563;23;20063;-78
2021/11/29 06:50:39;;;;;;;6.97;4.22;;;1.50;99.90;;;;;;5013164;23;20158;-78
2021/11/29 06:52:40;;;;;;;6.20;3.70;;;1.60;99.90;;;;;;5015876;23;20018;-79
2021/11/29 06:54:40;;;;;;;8.88;3.47;;;1.70;99.90;;;;;;5014832;23;20021;-79
2021/11/29 06:56:41;;;;;;;11.15;4.22;;;1.80;99.90;;;;;;5015358;23;20010;-78
2021/11/29 06:58:42;;;;;;;24.73;5.47;;;1.80;99.90;;;;;;5013126;23;20026;-79
2021/11/29 07:00:43;;;;;;;6.50;4.03;;;1.90;99.90;;;;;;5014804;23;20356;-79
2021/11/29 07:02:44;;;;;;;7.55;3.78;;;1.90;99.90;;;;;;5013997;23;20048;-78
2021/11/29 07:04:45;;;;;;;9.98;4.07;;;1.90;99.90;;;;;;5012991;23;20019;-79
2021/11/29 07:06:46;;;;;;;9.13;4.63;;;2.00;99.90;;;;;;5014523;23;20060;-79
2021/11/29 07:08:47;;;;;;;9.82;4.15;;;2.00;99.90;;;;;;5014879;23;20022;-78
2021/11/29 07:10:47;;;;;;;8.98;5.13;;;2.00;99.90;;;;;;5014413;23;20018;-79
2021/11/29 07:12:49;;;;;;;5.53;3.38;;;2.10;99.90;;;;;;5013334;23;20014;-79
2021/11/29 07:14:49;;;;;;;7.43;3.38;;;2.10;99.90;;;;;;5014357;23;20014;-79
2021/11/29 07:16:50;;;;;;;10.20;4.82;;;2.10;99.90;;;;;;5014408;23;20070;-78
2021/11/29 07:18:50;;;;;;;11.50;4.40;;;2.00;99.90;;;;;;5014362;23;20571;-78
2021/11/29 07:20:51;;;;;;;15.82;4.18;;;2.00;99.90;;;;;;5015044;23;20015;-78
2021/11/29 07:22:52;;;;;;;9.73;4.85;;;1.80;99.90;;;;;;5012776;23;20078;-78
2021/11/29 07:24:54;;;;;;;6.60;3.75;;;1.80;99.90;;;;;;5009514;23;20428;-80
2021/11/29 07:26:54;;;;;;;4.80;3.45;;;1.90;99.90;;;;;;5007024;23;20488;-79
2021/11/29 07:28:55;;;;;;;9.93;4.18;;;1.90;99.90;;;;;;5014416;23;20015;-77
2021/11/29 07:30:56;;;;;;;13.85;4.32;;;1.90;99.90;;;;;;5012498;23;20018;-78
2021/11/29 07:32:57;;;;;;;6.85;4.28;;;2.00;99.90;;;;;;5013332;23;20010;-78
2021/11/29 07:34:58;;;;;;;6.07;3.90;;;1.90;99.90;;;;;;5013892;23;20019;-80
2021/11/29 07:36:59;;;;;;;10.43;4.40;;;1.90;99.90;;;;;;5011769;23;20133;-79
2021/11/29 07:39:00;;;;;;;16.25;4.28;;;1.90;99.90;;;;;;5011577;23;20031;-79
2021/11/29 07:41:00;;;;;;;16.50;4.28;;;1.90;99.90;;;;;;5011675;23;20011;-79
2021/11/29 07:43:10;;;;;;;9.35;3.80;;;1.90;99.90;;;;;;5012204;23;20057;-79
2021/11/29 07:45:12;;;;;;;14.40;3.72;;;2.00;99.90;;;;;;5011347;23;20050;-80
2021/11/29 07:47:13;;;;;;;9.57;4.15;;;2.00;99.90;;;;;;5014655;23;20010;-79
2021/11/29 07:49:14;;;;;;;7.68;3.47;;;1.90;99.90;;;;;;5011912;23;20019;-79
2021/11/29 07:51:14;;;;;;;7.25;4.22;;;1.90;99.90;;;;;;5013370;23;20408;-78
2021/11/29 07:53:15;;;;;;;9.32;3.70;;;1.90;99.90;;;;;;5004849;23;20106;-78
2021/11/29 07:55:21;;;;;;;7.07;3.70;;;1.90;99.90;;;;;;5007025;23;20019;-78
2021/11/29 07:57:22;;;;;;;8.15;3.20;;;1.90;99.90;;;;;;5006506;23;20010;-78
2021/11/29 07:59:22;;;;;;;10.77;3.78;;;2.00;99.90;;;;;;5006638;23;20054;-78
2021/11/29 08:01:23;;;;;;;12.70;4.07;;;2.00;99.90;;;;;;5004092;23;20014;-77
2021/11/29 08:03:25;;;;;;;9.00;2.97;;;2.10;99.90;;;;;;5008622;23;20094;-78
2021/11/29 08:05:27;;;;;;;8.15;3.00;;;2.10;99.90;;;;;;5008165;23;20746;-80
2021/11/29 08:07:29;;;;;;;8.00;3.20;;;2.10;99.90;;;;;;5007087;23;20011;-80
2021/11/29 08:09:30;;;;;;;6.60;3.78;;;2.10;99.90;;;;;;5008483;23;20010;-79
2021/11/29 08:11:32;;;;;;;7.18;3.78;;;2.20;99.90;;;;;;5008175;23;20018;-80
2021/11/29 08:13:32;;;;;;;10.80;3.88;;;2.20;99.90;;;;;;5006318;23;20152;-79
2021/11/29 08:15:33;;;;;;;6.40;3.20;;;2.30;99.90;;;;;;5005936;23;20014;-79
2021/11/29 08:17:34;;;;;;;9.45;4.70;;;2.40;99.90;;;;;;5006753;23;20046;-80
2021/11/29 08:19:35;;;;;;;5.28;3.00;;;2.50;99.90;;;;;;5007423;23;20022;-79
2021/11/29 08:21:37;;;;;;;5.35;2.55;;;2.60;99.90;;;;;;5006227;23;20011;-78
2021/11/29 08:23:37;;;;;;;8.35;2.95;;;2.70;99.90;;;;;;5007334;23;20019;-79
2021/11/29 08:25:40;;;;;;;6.57;2.85;;;2.70;99.90;;;;;;5006840;23;20069;-78
2021/11/29 08:27:41;;;;;;;5.60;2.75;;;2.70;99.90;;;;;;5008172;23;20146;-80
2021/11/29 08:29:43;;;;;;;6.35;3.80;;;2.80;99.90;;;;;;5007629;23;20011;-80
2021/11/29 08:31:44;;;;;;;4.88;2.30;;;2.90;99.90;;;;;;5007474;23;20078;-80
2021/11/29 08:33:45;;;;;;;4.85;3.10;;;2.90;99.90;;;;;;5005769;23;20384;-79
2021/11/29 08:35:46;;;;;;;6.93;2.80;;;2.90;99.90;;;;;;5007641;23;20057;-80
2021/11/29 08:37:49;;;;;;;3.05;2.22;;;3.00;99.90;;;;;;5006179;23;20011;-79
2021/11/29 08:39:50;;;;;;;14.05;4.93;;;3.10;99.90;;;;;;5006790;23;20034;-79
2021/11/29 08:41:50;;;;;;;4.40;2.35;;;3.20;99.90;;;;;;5005337;23;20034;-80
2021/11/29 08:43:51;;;;;;;5.38;3.10;;;3.30;99.90;;;;;;5005403;23;20082;-79
2021/11/29 08:45:53;;;;;;;5.78;2.80;;;3.30;99.90;;;;;;5005483;23;20085;-81
2021/11/29 08:47:56;;;;;;;3.42;2.90;;;3.30;99.90;;;;;;5005750;23;20015;-79
2021/11/29 08:49:56;;;;;;;7.78;2.67;;;3.40;99.90;;;;;;5006611;23;20014;-79
2021/11/29 08:51:58;;;;;;;7.75;3.33;;;3.50;99.90;;;;;;5005265;23;20074;-79
2021/11/29 08:53:58;;;;;;;2.92;2.58;;;3.40;99.90;;;;;;5005724;23;20011;-79
2021/11/29 08:55:59;;;;;;;2.55;2.35;;;3.40;99.90;;;;;;5007051;23;20448;-80
2021/11/29 08:58:00;;;;;;;7.03;2.40;;;3.40;99.90;;;;;;5005375;23;20046;-79
2021/11/29 09:00:04;;;;;;;6.85;2.88;;;3.40;99.90;;;;;;5005422;23;20019;-80
2021/11/29 09:02:06;;;;;;;6.97;2.30;;;3.40;99.90;;;;;;5005156;23;21038;-80
2021/11/29 09:04:08;;;;;;;4.75;2.47;;;3.30;99.90;;;;;;5006585;23;20010;-80
2021/11/29 09:06:08;;;;;;;5.70;3.05;;;3.30;99.90;;;;;;5007438;23;20428;-79
2021/11/29 09:08:12;;;;;;;3.83;2.55;;;3.30;99.90;;;;;;5006857;23;20011;-79
2021/11/29 09:10:15;;;;;;;5.18;2.50;;;3.30;99.90;;;;;;5005483;23;20042;-80
2021/11/29 09:12:16;;;;;;;7.57;2.90;;;3.30;99.90;;;;;;5006469;23;20022;-79
2021/11/29 09:14:16;;;;;;;3.55;2.90;;;3.30;99.90;;;;;;5005355;23;20321;-80
2021/11/29 09:16:18;;;;;;;3.95;2.58;;;3.40;99.90;;;;;;5005431;23;20011;-78
2021/11/29 09:18:18;;;;;;;5.03;2.63;;;3.50;99.90;;;;;;5007029;23;20007;-78
2021/11/29 09:20:22;;;;;;;2.97;2.70;;;3.60;99.90;;;;;;5007917;23;20410;-81
2021/11/29 09:22:23;;;;;;;6.38;2.90;;;3.70;99.90;;;;;;5004326;23;20011;-79
2021/11/29 09:24:24;;;;;;;4.60;2.92;;;3.80;99.90;;;;;;5007095;23;20022;-78
2021/11/29 09:26:25;;;;;;;2.50;2.30;;;3.90;99.90;;;;;;5007032;23;20011;-77
2021/11/29 09:28:26;;;;;;;2.88;2.50;;;3.90;99.90;;;;;;5005558;23;20114;-81
2021/11/29 09:30:27;;;;;;;3.28;2.03;;;4.00;99.90;;;;;;5004300;23;20026;-79
2021/11/29 09:32:28;;;;;;;3.28;2.58;;;4.10;99.90;;;;;;5007281;23;20034;-81
2021/11/29 09:34:31;;;;;;;3.95;3.17;;;4.10;99.90;;;;;;5006788;23;20014;-80
2021/11/29 09:36:32;;;;;;;6.40;2.97;;;4.10;99.90;;;;;;5007646;23;20037;-81
2021/11/29 09:38:33;;;;;;;5.45;2.80;;;4.10;99.90;;;;;;5007326;23;20093;-82
2021/11/29 09:40:38;;;;;;;2.78;2.55;;;4.20;99.90;;;;;;5005315;23;20059;-80
2021/11/29 09:42:39;;;;;;;5.57;3.03;;;4.10;99.90;;;;;;5005316;23;20344;-79
2021/11/29 09:44:41;;;;;;;5.10;2.97;;;4.10;99.90;;;;;;5006956;23;20018;-79
2021/11/29 09:46:42;;;;;;;11.15;3.50;;;4.10;99.90;;;;;;5007041;23;20042;-80
2021/11/29 09:48:43;;;;;;;5.40;3.00;;;4.10;99.90;;;;;;5007624;23;20391;-79
2021/11/29 09:50:47;;;;;;;6.97;3.00;;;4.10;99.90;;;;;;5005713;23;20019;-79
2021/11/29 09:52:48;;;;;;;4.40;2.40;;;4.10;99.90;;;;;;5005679;23;20019;-79
2021/11/29 09:54:49;;;;;;;2.83;2.58;;;4.20;99.90;;;;;;5007416;23;20010;-79
2021/11/29 09:56:53;;;;;;;3.65;2.80;;;4.40;99.90;;;;;;5006661;23;20030;-79
2021/11/29 09:58:54;;;;;;;4.43;2.50;;;4.40;99.90;;;;;;5004689;23;20419;-79
2021/11/29 10:00:57;;;;;;;3.92;3.40;;;4.40;99.90;;;;;;5007170;23;20015;-79
2021/11/29 10:02:59;;;;;;;5.32;2.63;;;4.40;99.90;;;;;;5007332;23;20329;-79
2021/11/29 10:04:59;;;;;;;7.20;2.90;;;4.30;99.90;;;;;;5006975;23;20014;-79
2021/11/29 10:07:03;;;;;;;6.03;2.60;;;4.40;99.90;;;;;;5007337;23;20015;-79
2021/11/29 10:09:24;;;;;;;4.82;2.25;;;4.40;99.90;;;;;;5005915;23;20077;-78
2021/11/29 10:11:25;;;;;;;4.97;2.53;;;4.30;99.90;;;;;;5004371;23;20014;-78
2021/11/29 10:13:27;;;;;;;3.60;2.20;;;4.40;99.90;;;;;;5005662;23;20022;-79
2021/11/29 10:15:36;;;;;;;3.17;2.30;;;4.40;99.90;;;;;;5006529;23;20045;-78
2021/11/29 10:17:37;;;;;;;3.92;2.40;;;4.30;99.90;;;;;;5006880;23;20011;-78
2021/11/29 10:19:38;;;;;;;5.40;2.33;;;4.60;99.90;;;;;;5006558;23;20014;-79
2021/11/29 10:21:39;;;;;;;2.42;2.22;;;5.10;99.90;;;;;;5004842;23;20086;-79
2021/11/29 10:23:42;;;;;;;3.47;2.60;;;5.80;99.90;;;;;;5002527;23;20015;-79
2021/11/29 10:25:44;;;;;;;5.32;2.30;;;6.30;99.90;;;;;;5003175;23;20154;-78
2021/11/29 10:27:46;;;;;;;7.20;2.97;;;6.90;99.90;;;;;;5002835;23;20015;-78
2021/11/29 10:29:52;;;;;;;3.15;2.47;;;7.20;99.90;;;;;;5004197;23;20015;-78
2021/11/29 10:31:55;;;;;;;8.20;3.10;;;7.40;99.90;;;;;;5003572;23;20470;-78
2021/11/29 10:34:10;;;;;;;3.10;2.28;;;7.60;99.90;;;;;;5005399;23;20090;-79
2021/11/29 10:36:13;;;;;;;2.90;2.60;;;8.00;99.90;;;;;;5005935;23;20045;-79
2021/11/29 10:38:16;;;;;;;5.18;2.53;;;8.30;99.90;;;;;;5004412;23;20015;-79